CST,Max TemperatureF,Mean TemperatureF,Min TemperatureF,Max Dew PointF,MeanDew PointF,Min DewpointF,Max Humidity, Mean Humidity, Min Humidity, Max Sea Level PressureIn, Mean Sea Level PressureIn, Min Sea Level PressureIn, Max VisibilityMiles, Mean VisibilityMiles, Min VisibilityMiles, Max Wind SpeedMPH, Mean Wind SpeedMPH, Max Gust SpeedMPH,PrecipitationIn, CloudCover, Events, WindDirDegrees
2013-2-1,17,10,3,13,2,-3,83,69,58,30.35,30.26,30.11,10,10,3,20,14,26,0.00,3,,248
2013-2-2,25,20,14,23,18,11,95,90,83,30.19,30.03,29.95,10,5,1,14,9,20,0.00,8,,252
2013-2-3,22,16,9,17,11,4,88,80,64,30.05,29.99,29.94,10,9,1,15,9,18,0.00,7,,263
2013-2-4,27,24,20,23,21,18,97,90,81,30.04,29.90,29.82,10,8,1,10,5,,0.00,8,,72
2013-2-5,31,22,12,31,23,11,100,91,64,30.05,29.90,29.79,10,5,0,17,4,20,0.00,7,,248
2013-2-6,34,30,25,27,23,19,89,75,58,30.24,30.18,30.06,10,9,7,13,6,16,0.00,4,,182
2013-2-7,45,37,29,36,32,27,100,87,69,30.14,29.97,29.80,7,5,1,16,8,22,0.00,4,,120
2013-2-8,35,32,29,33,29,24,100,88,71,30.35,30.15,29.85,10,10,2,24,16,31,0.00,8,,340
2013-2-9,36,29,22,28,25,21,97,81,70,30.39,30.30,30.12,10,10,10,16,6,22,0.00,2,,140
2013-2-10,50,41,32,48,36,24,97,85,70,30.11,29.84,29.57,10,9,3,24,13,33,0.00,7,,163
2013-2-11,49,40,30,47,27,22,92,71,66,30.01,29.79,29.58,10,10,10,37,22,47,0.00,8,,256
2013-2-12,30,27,23,25,23,21,98,79,71,30.10,30.03,29.94,10,10,5,23,11,26,0.00,7,,270
2013-2-13,44,32,21,32,27,20,99,84,56,29.94,29.80,29.72,10,7,4,14,5,18,0.00,1,,203
2013-2-14,40,36,30,34,30,22,95,80,59,29.96,29.80,29.69,10,10,7,23,11,31,0.00,8,,244
2013-2-15,32,28,25,28,21,12,94,74,54,30.16,30.09,29.96,10,9,2,18,8,21,0.00,7,,319
2013-2-16,25,20,14,22,11,5,92,73,51,30.14,30.11,30.09,10,10,3,17,10,23,0.00,4,,304
2013-2-17,29,20,11,14,8,4,77,58,37,30.21,30.15,30.09,10,10,10,13,8,16,0.00,0,,220
2013-2-18,53,39,25,45,30,13,97,68,51,30.07,29.76,29.45,10,9,4,29,18,41,0.00,4,,175
2013-2-19,33,24,14,33,14,8,98,79,69,30.12,29.87,29.53,10,8,2,32,22,40,0.00,8,,271
2013-2-20,23,16,11,19,11,5,85,76,64,30.33,30.26,30.13,10,8,2,17,13,22,0.00,7,,303
2013-2-21,27,25,23,22,20,17,90,79,72,30.35,30.24,30.00,10,9,1,22,7,33,0.00,8,,85
2013-2-22,33,28,23,33,27,21,100,92,77,29.99,29.88,29.84,10,5,1,20,13,24,0.00,8,,184
2013-2-23,28,26,25,24,20,16,87,77,63,29.96,29.94,29.91,10,10,10,16,11,20,0.00,8,,255
2013-2-24,34,25,16,25,21,15,96,80,58,30.14,30.08,29.96,10,9,5,10,6,,0.00,0,,253
2013-2-25,42,32,21,28,25,20,98,79,55,30.18,30.09,29.96,10,9,5,15,4,17,0.00,0,,92
2013-2-26,34,33,32,34,29,24,100,89,67,29.94,29.60,29.45,10,6,2,23,13,30,0.00,6,,61
2013-2-27,33,32,31,33,32,32,100,100,100,29.62,29.54,29.45,10,2,0,13,7,16,0.00,8,,255
2013-2-28,37,34,31,36,32,29,100,96,87,29.99,29.84,29.63,10,8,1,21,10,26,0.00,8,,330